Time;durP1;ratioP1;P1;durP2;ratioP2;P2;SDS_P1;SDS_P2;PMS_P1;PMS_P2;Temp;Humidity;BMP_temperature;BMP_pressure;BME280_temperature;BME280_humidity;BME280_pressure;Samples;Min_cycle;Max_cycle;Signal;HPM_P1;HPM_P2
2023/08/27 00:01:14;;;;;;;6.18;5.68;;;24.20;99.90;;;;;;5025759;28;20196;-77
2023/08/27 00:03:41;;;;;;;5.95;5.45;;;24.20;99.90;;;;;;5014474;28;20805;-78
2023/08/27 00:06:10;;;;;;;5.97;5.47;;;24.30;99.90;;;;;;5030439;28;20266;-78
2023/08/27 00:08:38;;;;;;;6.05;5.45;;;24.30;99.90;;;;;;5018336;28;20223;-78
2023/08/27 00:11:05;;;;;;;5.60;5.20;;;24.30;99.90;;;;;;5028374;28;20218;-78
2023/08/27 00:13:32;;;;;;;5.13;4.72;;;24.30;99.90;;;;;;5013736;28;20204;-78
2023/08/27 00:15:59;;;;;;;5.60;5.10;;;24.30;99.90;;;;;;5023454;28;20288;-78
2023/08/27 00:18:26;;;;;;;5.43;5.03;;;24.30;99.90;;;;;;5032035;28;20775;-78
2023/08/27 00:20:53;;;;;;;6.05;5.55;;;24.30;99.90;;;;;;5033989;28;20211;-77
2023/08/27 00:23:20;;;;;;;5.40;4.90;;;24.30;99.90;;;;;;5010793;28;20309;-78
2023/08/27 00:25:48;;;;;;;5.68;5.18;;;24.30;99.90;;;;;;5028567;28;20258;-78
2023/08/27 00:28:16;;;;;;;5.95;5.45;;;24.30;99.90;;;;;;5028760;28;20249;-78
2023/08/27 00:30:43;;;;;;;6.30;5.20;;;24.30;99.90;;;;;;5025201;28;20318;-78
2023/08/27 00:33:11;;;;;;;5.70;5.20;;;24.20;99.90;;;;;;5008808;28;20319;-77
2023/08/27 00:35:38;;;;;;;5.45;5.05;;;24.10;99.90;;;;;;5015939;28;20265;-78
2023/08/27 00:38:06;;;;;;;7.13;5.63;;;24.10;99.90;;;;;;5032169;28;20219;-77
2023/08/27 00:40:34;;;;;;;6.57;5.80;;;24.10;99.90;;;;;;5028431;28;20833;-78
2023/08/27 00:43:03;;;;;;;5.43;5.00;;;24.10;99.90;;;;;;5026805;28;20211;-78
2023/08/27 00:45:30;;;;;;;6.93;6.32;;;24.10;99.90;;;;;;5029947;28;20282;-78
2023/08/27 00:47:57;;;;;;;6.15;5.55;;;24.10;99.90;;;;;;5029779;28;20757;-78
2023/08/27 00:50:26;;;;;;;6.00;5.40;;;24.10;99.90;;;;;;5026230;28;20246;-78
2023/08/27 00:52:53;;;;;;;5.32;4.93;;;24.10;99.90;;;;;;5025001;28;20226;-76
2023/08/27 00:55:21;;;;;;;6.43;5.82;;;24.10;99.90;;;;;;5028908;28;20230;-78
2023/08/27 00:57:49;;;;;;;6.45;5.85;;;24.10;99.90;;;;;;5018990;28;20269;-78
2023/08/27 01:00:18;;;;;;;5.68;5.28;;;24.00;99.90;;;;;;5023549;28;20204;-78
2023/08/27 01:02:47;;;;;;;5.60;5.15;;;24.00;99.90;;;;;;5017589;28;20250;-78
2023/08/27 01:05:15;;;;;;;7.75;5.30;;;24.10;99.90;;;;;;5030521;28;20198;-76
2023/08/27 01:07:50;;;;;;;7.38;6.20;;;24.10;99.90;;;;;;5032554;28;20268;-77
2023/08/27 01:10:24;;;;;;;11.13;8.00;;;24.30;99.90;;;;;;5026033;28;20196;-76
2023/08/27 01:13:01;;;;;;;12.75;6.65;;;24.00;99.90;;;;;;5033114;28;20207;-76
2023/08/27 01:15:30;;;;;;;6.88;5.03;;;23.30;99.90;;;;;;5021540;28;20256;-78
2023/08/27 01:18:00;;;;;;;5.50;3.53;;;22.30;99.90;;;;;;5036408;28;20306;-78
2023/08/27 01:20:27;;;;;;;4.20;3.60;;;21.30;99.90;;;;;;5030424;28;20740;-78
2023/08/27 01:22:56;;;;;;;5.00;3.20;;;20.70;99.90;;;;;;5025878;28;20206;-77
2023/08/27 01:25:28;;;;;;;4.60;2.58;;;20.50;99.90;;;;;;5024087;28;20208;-79
2023/08/27 01:28:04;;;;;;;3.10;2.80;;;20.50;99.90;;;;;;5018675;28;20255;-76
2023/08/27 01:30:37;;;;;;;3.70;3.17;;;20.20;99.90;;;;;;5027254;28;20203;-77
2023/08/27 01:33:10;;;;;;;2.78;2.58;;;20.20;99.90;;;;;;5011716;28;20196;-77
2023/08/27 01:35:38;;;;;;;2.85;2.65;;;20.50;99.90;;;;;;5031750;28;20207;-78
2023/08/27 01:38:07;;;;;;;3.30;2.75;;;20.80;99.90;;;;;;5018478;28;20259;-78
2023/08/27 01:40:35;;;;;;;3.42;3.13;;;21.00;99.90;;;;;;5039549;28;20223;-78
2023/08/27 01:43:02;;;;;;;3.83;3.50;;;21.30;99.90;;;;;;5011809;28;20205;-78
2023/08/27 01:45:29;;;;;;;4.80;3.50;;;21.50;99.90;;;;;;5035535;28;20208;-79
2023/08/27 01:47:56;;;;;;;6.05;5.55;;;21.50;99.90;;;;;;5024764;28;20270;-78
2023/08/27 01:50:23;;;;;;;7.13;5.15;;;21.40;99.90;;;;;;5027987;28;20261;-79
2023/08/27 01:52:50;;;;;;;5.05;4.65;;;21.20;99.90;;;;;;5022641;28;20754;-78
2023/08/27 01:55:18;;;;;;;5.60;5.10;;;21.20;99.90;;;;;;5025869;28;20286;-79
2023/08/27 01:57:45;;;;;;;5.22;4.80;;;21.50;99.90;;;;;;5013805;28;20223;-78
2023/08/27 02:00:16;;;;;;;5.70;5.20;;;22.00;99.90;;;;;;5027659;28;20294;-79
2023/08/27 02:02:43;;;;;;;5.97;4.88;;;22.30;99.90;;;;;;5028694;28;20199;-78
2023/08/27 02:05:10;;;;;;;5.22;4.72;;;22.50;99.90;;;;;;5025233;28;20253;-78
2023/08/27 02:07:39;;;;;;;15.73;4.85;;;22.40;99.90;;;;;;5030446;28;20309;-79
2023/08/27 02:10:40;;;;;;;5.00;4.60;;;22.20;99.90;;;;;;5028084;28;20690;-78
2023/08/27 02:13:09;;;;;;;4.85;4.45;;;22.00;99.90;;;;;;5023907;28;20268;-77
2023/08/27 02:15:35;;;;;;;4.85;4.45;;;22.10;99.90;;;;;;5029271;28;20203;-78
2023/08/27 02:18:03;;;;;;;5.53;5.03;;;22.40;99.90;;;;;;5029493;28;20300;-78
2023/08/27 02:20:30;;;;;;;4.97;4.47;;;22.50;99.90;;;;;;5029191;28;20200;-78
2023/08/27 02:22:56;;;;;;;5.20;4.70;;;22.60;99.90;;;;;;5025565;28;20231;-78
2023/08/27 02:25:23;;;;;;;4.50;4.20;;;22.60;99.90;;;;;;5024380;28;20211;-77
2023/08/27 02:27:50;;;;;;;4.30;3.97;;;22.10;99.90;;;;;;5025405;28;20223;-78
2023/08/27 02:30:19;;;;;;;4.45;4.13;;;21.90;99.90;;;;;;5033166;28;20207;-78
2023/08/27 02:32:46;;;;;;;4.38;3.97;;;22.10;99.90;;;;;;5017785;28;20277;-78
2023/08/27 02:35:13;;;;;;;4.70;4.30;;;22.20;99.90;;;;;;5026889;28;20207;-78
2023/08/27 02:37:40;;;;;;;4.47;4.07;;;22.30;99.90;;;;;;5033985;28;20219;-78
2023/08/27 02:40:08;;;;;;;4.97;4.57;;;22.40;99.90;;;;;;5027850;28;20234;-77
2023/08/27 02:42:35;;;;;;;4.25;3.85;;;22.30;99.90;;;;;;5017373;28;21108;-78
2023/08/27 02:45:02;;;;;;;3.92;3.63;;;22.00;99.90;;;;;;5029904;28;20234;-78
2023/08/27 02:47:30;;;;;;;3.60;3.30;;;21.70;99.90;;;;;;5019122;28;20747;-78
2023/08/27 02:49:57;;;;;;;3.45;3.20;;;21.60;99.90;;;;;;5032135;28;20606;-78
2023/08/27 02:52:24;;;;;;;4.47;3.55;;;21.60;99.90;;;;;;5028238;28;20223;-78
2023/08/27 02:54:51;;;;;;;3.38;3.17;;;21.70;99.90;;;;;;5027536;28;20227;-79
2023/08/27 02:57:18;;;;;;;3.80;3.50;;;21.80;99.90;;;;;;5029626;28;20218;-79
2023/08/27 02:59:45;;;;;;;3.58;3.28;;;21.70;99.90;;;;;;5032600;28;20241;-79
2023/08/27 03:02:12;;;;;;;3.58;3.28;;;21.70;99.90;;;;;;5021553;28;20185;-78
2023/08/27 03:04:40;;;;;;;4.22;3.92;;;21.70;99.90;;;;;;5032035;28;20257;-79
2023/08/27 03:07:07;;;;;;;3.75;3.45;;;21.70;99.90;;;;;;5029801;28;20302;-78
2023/08/27 03:09:34;;;;;;;4.30;4.00;;;21.70;99.90;;;;;;5031733;28;20441;-79
2023/08/27 03:12:01;;;;;;;4.78;4.38;;;21.90;99.90;;;;;;5030209;28;20250;-79
2023/08/27 03:14:28;;;;;;;5.40;4.90;;;22.10;99.90;;;;;;5032283;28;20280;-78
2023/08/27 03:16:55;;;;;;;4.30;4.00;;;22.40;99.90;;;;;;5023244;28;20725;-78
2023/08/27 03:19:22;;;;;;;4.68;4.28;;;22.60;99.90;;;;;;5026782;28;20258;-78
2023/08/27 03:21:50;;;;;;;4.22;3.92;;;22.60;99.90;;;;;;5027398;28;20231;-79
2023/08/27 03:24:17;;;;;;;5.43;4.93;;;22.70;99.90;;;;;;5028250;28;20207;-79
2023/08/27 03:26:44;;;;;;;4.78;4.40;;;22.50;99.90;;;;;;5023837;28;20200;-78
2023/08/27 03:29:11;;;;;;;4.38;4.07;;;22.30;99.90;;;;;;5025304;28;20256;-79
2023/08/27 03:31:38;;;;;;;5.93;5.20;;;22.30;99.90;;;;;;5032569;28;20713;-78
2023/08/27 03:34:05;;;;;;;5.20;4.80;;;22.40;99.90;;;;;;5034089;28;20199;-78
2023/08/27 03:36:32;;;;;;;4.90;4.55;;;22.50;99.90;;;;;;5031260;28;22239;-78
2023/08/27 03:39:00;;;;;;;5.13;4.70;;;22.40;99.90;;;;;;5032205;28;20216;-79
2023/08/27 03:41:28;;;;;;;4.85;4.45;;;22.30;99.90;;;;;;5037490;28;20266;-78
2023/08/27 03:43:55;;;;;;;5.18;4.78;;;22.20;99.90;;;;;;5036903;28;20673;-78
2023/08/27 03:46:22;;;;;;;4.18;3.83;;;22.10;99.90;;;;;;5043255;28;20268;-79
2023/08/27 03:48:49;;;;;;;5.18;4.78;;;22.10;99.90;;;;;;5037559;28;20230;-79
2023/08/27 03:51:15;;;;;;;4.97;4.60;;;22.10;99.90;;;;;;5034531;28;20200;-78
2023/08/27 03:53:42;;;;;;;6.45;5.75;;;22.00;99.90;;;;;;5025338;28;20259;-78
2023/08/27 03:56:11;;;;;;;5.10;4.70;;;21.80;99.90;;;;;;5035962;28;20210;-78
2023/08/27 03:58:38;;;;;;;5.30;4.85;;;21.60;99.90;;;;;;5034449;28;20264;-78
2023/08/27 04:01:04;;;;;;;4.47;4.18;;;21.60;99.90;;;;;;5032634;28;20234;-78
2023/08/27 04:03:31;;;;;;;5.18;4.63;;;21.70;99.90;;;;;;5030002;28;20234;-79
2023/08/27 04:05:59;;;;;;;5.05;4.65;;;21.80;99.90;;;;;;5031225;28;20203;-79
2023/08/27 04:08:26;;;;;;;5.63;5.13;;;21.90;99.90;;;;;;5031198;28;20230;-78
2023/08/27 04:10:54;;;;;;;5.68;5.28;;;22.10;99.90;;;;;;5029785;28;20262;-78
2023/08/27 04:13:22;;;;;;;4.88;4.47;;;22.20;99.90;;;;;;5036688;28;20247;-78
2023/08/27 04:15:58;;;;;;;5.22;4.82;;;22.20;99.90;;;;;;5038991;28;20235;-80
2023/08/27 04:18:25;;;;;;;4.80;4.40;;;22.20;99.90;;;;;;5037397;28;20223;-78
2023/08/27 04:20:52;;;;;;;4.80;4.50;;;22.20;99.90;;;;;;5042772;28;20609;-79
2023/08/27 04:23:19;;;;;;;4.93;4.53;;;22.00;99.90;;;;;;5035643;28;20611;-78
2023/08/27 04:25:46;;;;;;;4.57;4.28;;;21.80;99.90;;;;;;5033264;28;20228;-78
2023/08/27 04:28:13;;;;;;;5.35;4.93;;;21.70;99.90;;;;;;5040432;28;20251;-78
2023/08/27 04:30:42;;;;;;;4.95;4.55;;;21.60;99.90;;;;;;5040817;28;20265;-78
2023/08/27 04:33:10;;;;;;;4.75;4.35;;;21.70;99.90;;;;;;5037868;28;20215;-78
2023/08/27 04:35:38;;;;;;;4.25;3.95;;;21.90;99.90;;;;;;5042441;28;20210;-78
2023/08/27 04:38:06;;;;;;;5.47;4.47;;;21.90;99.90;;;;;;5038021;28;20310;-79
2023/08/27 04:40:32;;;;;;;5.07;4.68;;;22.00;99.90;;;;;;5032047;28;20260;-78
2023/08/27 04:42:59;;;;;;;4.28;3.97;;;22.00;99.90;;;;;;5033071;28;20250;-78
2023/08/27 04:45:26;;;;;;;4.93;4.53;;;21.90;99.90;;;;;;5033689;28;20203;-78
2023/08/27 04:47:55;;;;;;;4.85;4.45;;;21.90;99.90;;;;;;5037167;28;20630;-78
2023/08/27 04:50:22;;;;;;;6.05;4.65;;;21.90;99.90;;;;;;5035447;28;20253;-78
2023/08/27 04:52:49;;;;;;;5.55;5.05;;;22.10;99.90;;;;;;5029922;28;20269;-79
2023/08/27 04:55:15;;;;;;;5.07;4.65;;;22.10;99.90;;;;;;5030739;28;20200;-79
2023/08/27 04:57:42;;;;;;;5.05;4.55;;;22.10;99.90;;;;;;5030585;28;20216;-78
2023/08/27 05:00:13;;;;;;;5.10;4.60;;;22.20;99.90;;;;;;5033071;28;20246;-78
2023/08/27 05:02:40;;;;;;;4.72;4.20;;;22.20;99.90;;;;;;5029158;28;20805;-78
2023/08/27 05:05:10;;;;;;;4.60;4.22;;;22.20;99.90;;;;;;5032289;28;20227;-78
2023/08/27 05:07:37;;;;;;;5.38;4.30;;;22.30;99.90;;;;;;5028653;28;20302;-79
2023/08/27 05:10:04;;;;;;;4.57;4.18;;;22.50;99.90;;;;;;5027395;28;20291;-78
2023/08/27 05:12:31;;;;;;;4.78;4.38;;;22.50;99.90;;;;;;5023683;28;20335;-78
2023/08/27 05:14:58;;;;;;;6.60;4.32;;;22.50;99.90;;;;;;5027738;28;20203;-78
2023/08/27 05:17:25;;;;;;;4.80;4.40;;;22.50;99.90;;;;;;5024830;28;20244;-79
2023/08/27 05:19:52;;;;;;;4.70;4.32;;;22.60;99.90;;;;;;5031814;28;20945;-79
2023/08/27 05:22:20;;;;;;;4.13;3.83;;;22.60;99.90;;;;;;5029903;28;20196;-79
2023/08/27 05:24:47;;;;;;;4.10;3.80;;;22.60;99.90;;;;;;5029768;28;20258;-79
2023/08/27 05:27:14;;;;;;;4.43;4.03;;;22.50;99.90;;;;;;5033897;28;20907;-77
2023/08/27 05:29:41;;;;;;;3.88;3.58;;;22.40;99.90;;;;;;5026659;28;20232;-78
2023/08/27 05:32:08;;;;;;;4.18;3.88;;;22.30;99.90;;;;;;5031268;28;20646;-78
2023/08/27 05:34:35;;;;;;;4.53;4.22;;;22.20;99.90;;;;;;5032404;28;20671;-77
2023/08/27 05:37:02;;;;;;;4.88;3.90;;;22.30;99.90;;;;;;5030744;28;20219;-79
2023/08/27 05:39:31;;;;;;;4.88;4.45;;;22.30;99.90;;;;;;5029560;28;20588;-78
2023/08/27 05:41:58;;;;;;;4.35;3.95;;;22.40;99.90;;;;;;5031284;28;20235;-79
2023/08/27 05:44:25;;;;;;;4.82;4.43;;;22.60;99.90;;;;;;5027391;28;20289;-78
2023/08/27 05:46:51;;;;;;;4.70;4.30;;;22.60;99.90;;;;;;5025982;28;20218;-79
2023/08/27 05:49:18;;;;;;;5.60;5.10;;;22.80;99.90;;;;;;5028809;28;20863;-78
2023/08/27 05:51:46;;;;;;;4.43;4.10;;;23.10;99.90;;;;;;5026787;28;20207;-79
2023/08/27 05:54:13;;;;;;;5.03;4.63;;;23.30;99.90;;;;;;5026881;28;20224;-78
2023/08/27 05:56:42;;;;;;;4.80;4.40;;;23.40;99.90;;;;;;5028095;28;20222;-78
2023/08/27 05:59:11;;;;;;;5.20;4.80;;;22.90;99.90;;;;;;5032612;28;20266;-79
2023/08/27 06:01:38;;;;;;;4.35;4.00;;;22.60;99.90;;;;;;5026946;28;20203;-79
2023/08/27 06:04:05;;;;;;;4.40;4.00;;;22.60;99.90;;;;;;5034979;28;20227;-79
2023/08/27 06:06:32;;;;;;;4.78;4.38;;;22.70;99.90;;;;;;5027228;28;20246;-79
2023/08/27 06:08:59;;;;;;;4.95;4.45;;;23.10;99.90;;;;;;5026933;28;20239;-80
2023/08/27 06:11:26;;;;;;;4.47;4.07;;;23.20;99.90;;;;;;5033197;28;20288;-79
2023/08/27 06:13:54;;;;;;;4.85;4.45;;;23.10;99.90;;;;;;5025559;28;20243;-80
2023/08/27 06:16:21;;;;;;;4.55;4.20;;;23.00;99.90;;;;;;5033387;28;20231;-79
2023/08/27 06:18:49;;;;;;;4.25;3.90;;;22.90;99.90;;;;;;5032842;28;20265;-78
2023/08/27 06:21:17;;;;;;;4.20;3.90;;;22.90;99.90;;;;;;5036388;28;20199;-78
2023/08/27 06:23:44;;;;;;;4.60;4.30;;;23.20;99.90;;;;;;5034093;28;20195;-79
2023/08/27 06:26:11;;;;;;;5.65;5.15;;;23.50;99.90;;;;;;5026155;28;20213;-78
2023/08/27 06:28:38;;;;;;;4.95;4.55;;;23.60;99.90;;;;;;5032079;28;20223;-79
2023/08/27 06:31:06;;;;;;;4.75;4.35;;;23.30;99.90;;;;;;5033118;28;20196;-79
2023/08/27 06:33:33;;;;;;;5.55;5.13;;;23.00;99.90;;;;;;5024350;28;20215;-79
2023/08/27 06:36:00;;;;;;;6.13;5.40;;;22.40;99.90;;;;;;5028632;28;20246;-77
2023/08/27 06:38:27;;;;;;;7.35;5.05;;;21.90;99.90;;;;;;5030886;28;20216;-78
2023/08/27 06:40:54;;;;;;;5.43;4.93;;;21.50;99.90;;;;;;5028010;28;20685;-79
2023/08/27 06:43:22;;;;;;;5.32;4.82;;;21.30;99.90;;;;;;5031827;28;20227;-79
2023/08/27 06:45:49;;;;;;;10.95;4.55;;;21.40;99.90;;;;;;5028391;28;20278;-79
2023/08/27 06:48:17;;;;;;;5.28;4.00;;;21.70;99.90;;;;;;5024600;28;20257;-78
2023/08/27 06:50:44;;;;;;;11.82;5.20;;;22.00;99.90;;;;;;5025909;28;20204;-78
2023/08/27 06:53:11;;;;;;;8.88;5.28;;;22.20;99.90;;;;;;5023313;28;20759;-78
2023/08/27 06:55:38;;;;;;;6.43;4.95;;;22.50;99.90;;;;;;5028023;28;20234;-77
2023/08/27 06:58:05;;;;;;;5.38;4.88;;;22.70;99.90;;;;;;5033693;28;20584;-78
2023/08/27 07:00:33;;;;;;;6.15;5.63;;;22.80;99.90;;;;;;5028821;28;20204;-77
2023/08/27 07:03:00;;;;;;;5.43;5.03;;;22.90;99.90;;;;;;5028748;28;20218;-79
2023/08/27 07:05:29;;;;;;;5.43;5.03;;;22.70;99.90;;;;;;5036683;28;20202;-78
2023/08/27 07:07:56;;;;;;;5.97;5.47;;;22.70;99.90;;;;;;5033858;28;20232;-78
2023/08/27 07:10:23;;;;;;;6.15;5.65;;;22.90;99.90;;;;;;5031193;28;20195;-78
2023/08/27 07:12:50;;;;;;;5.63;5.22;;;23.00;99.90;;;;;;5026924;28;20789;-78
2023/08/27 07:15:17;;;;;;;5.70;5.30;;;23.10;99.90;;;;;;5029887;28;20208;-77
2023/08/27 07:17:44;;;;;;;5.90;5.50;;;23.00;99.90;;;;;;5031425;28;20712;-78
2023/08/27 07:20:13;;;;;;;5.35;4.85;;;22.90;99.90;;;;;;5032783;28;20200;-78
2023/08/27 07:22:41;;;;;;;5.53;5.13;;;22.80;99.90;;;;;;5030640;28;20266;-78
2023/08/27 07:25:10;;;;;;;5.65;5.15;;;22.80;99.90;;;;;;5031810;28;20238;-76
2023/08/27 07:27:37;;;;;;;4.85;4.45;;;22.90;99.90;;;;;;5028401;28;20753;-77
2023/08/27 07:30:05;;;;;;;5.38;4.88;;;23.00;99.90;;;;;;5033872;28;20286;-78
2023/08/27 07:32:32;;;;;;;5.00;4.60;;;22.90;99.90;;;;;;5032989;28;20199;-77
2023/08/27 07:34:59;;;;;;;5.13;4.72;;;22.80;99.90;;;;;;5035410;28;20203;-79
2023/08/27 07:37:26;;;;;;;4.85;4.45;;;23.20;99.90;;;;;;5032878;28;20563;-78
2023/08/27 07:39:54;;;;;;;4.53;4.18;;;23.30;99.90;;;;;;5033471;28;20208;-78
2023/08/27 07:42:22;;;;;;;5.82;5.43;;;23.40;99.90;;;;;;5032027;28;20223;-78
2023/08/27 07:44:49;;;;;;;6.43;5.82;;;23.50;99.90;;;;;;5032582;28;20207;-77
2023/08/27 07:47:16;;;;;;;6.13;5.63;;;23.40;99.90;;;;;;5033614;28;20222;-80
2023/08/27 07:49:43;;;;;;;5.78;5.28;;;23.20;99.90;;;;;;5034197;28;20285;-79
2023/08/27 07:52:10;;;;;;;5.35;4.95;;;23.20;99.90;;;;;;5037939;28;20696;-78
2023/08/27 07:54:37;;;;;;;6.75;6.25;;;23.70;99.90;;;;;;5034107;28;20277;-78
2023/08/27 07:57:05;;;;;;;6.53;5.93;;;24.30;99.90;;;;;;5034024;28;20369;-79
2023/08/27 07:59:32;;;;;;;6.65;6.07;;;24.60;99.90;;;;;;5029906;28;20282;-78
2023/08/27 08:01:59;;;;;;;6.35;5.75;;;24.60;99.90;;;;;;5028062;28;20231;-79
2023/08/27 08:04:26;;;;;;;5.95;5.45;;;24.20;99.90;;;;;;5037044;28;20252;-78
2023/08/27 08:06:53;;;;;;;5.63;5.13;;;24.30;99.90;;;;;;5032257;28;20261;-78
2023/08/27 08:09:21;;;;;;;6.55;6.05;;;24.30;99.90;;;;;;5036621;28;20231;-79
2023/08/27 08:11:48;;;;;;;5.95;5.47;;;24.10;99.90;;;;;;5031966;28;20245;-78
2023/08/27 08:14:16;;;;;;;7.25;6.65;;;23.80;99.90;;;;;;5033040;28;20212;-79
2023/08/27 08:16:43;;;;;;;6.50;6.00;;;23.60;99.90;;;;;;5032605;28;20231;-79
2023/08/27 08:19:10;;;;;;;7.03;6.32;;;23.40;99.90;;;;;;5031335;28;20696;-79
2023/08/27 08:21:37;;;;;;;6.90;6.30;;;23.30;99.90;;;;;;5033033;28;20227;-80
2023/08/27 08:24:05;;;;;;;7.68;5.95;;;23.30;99.90;;;;;;5030984;28;20227;-79
2023/08/27 08:26:32;;;;;;;6.22;5.72;;;23.40;99.90;;;;;;5026530;28;20223;-79
2023/08/27 08:28:59;;;;;;;7.43;6.82;;;23.60;99.90;;;;;;5029039;28;20220;-79
2023/08/27 08:31:27;;;;;;;8.63;6.00;;;23.90;99.90;;;;;;5029638;28;20200;-80
2023/08/27 08:33:54;;;;;;;6.70;6.15;;;24.00;99.90;;;;;;5028518;28;20215;-79
2023/08/27 08:36:21;;;;;;;7.40;6.75;;;24.20;99.90;;;;;;5029175;28;20662;-78
2023/08/27 08:38:48;;;;;;;9.40;7.78;;;24.50;99.90;;;;;;5033202;28;20219;-79
2023/08/27 08:41:20;;;;;;;7.85;7.15;;;24.60;99.90;;;;;;5029720;28;20227;-78
2023/08/27 08:43:53;;;;;;;6.60;6.00;;;24.70;99.90;;;;;;5029548;28;20204;-79
2023/08/27 08:46:20;;;;;;;8.18;7.47;;;24.70;99.90;;;;;;5030882;28;20719;-79
2023/08/27 08:48:50;;;;;;;8.05;7.35;;;24.80;99.90;;;;;;5033266;28;20263;-80
2023/08/27 08:51:24;;;;;;;7.03;6.53;;;24.80;99.90;;;;;;5027720;28;20226;-78
2023/08/27 08:53:53;;;;;;;7.57;6.88;;;25.30;99.90;;;;;;5033761;28;20219;-80
2023/08/27 08:56:24;;;;;;;7.38;6.78;;;25.80;99.90;;;;;;5026881;28;20192;-79
2023/08/27 08:58:55;;;;;;;7.30;6.70;;;26.10;99.90;;;;;;5032750;28;20862;-80
2023/08/27 09:01:23;;;;;;;7.25;6.65;;;26.20;99.90;;;;;;5030322;28;20199;-79
2023/08/27 09:03:52;;;;;;;7.47;6.88;;;26.40;99.90;;;;;;5030934;28;20215;-79
2023/08/27 09:06:21;;;;;;;7.18;6.57;;;26.60;99.90;;;;;;5029166;28;20235;-80
2023/08/27 09:08:49;;;;;;;8.63;7.80;;;26.20;99.90;;;;;;5030382;28;20255;-81
2023/08/27 09:11:17;;;;;;;7.60;6.85;;;25.70;99.90;;;;;;5028476;28;20261;-80
2023/08/27 09:13:44;;;;;;;7.40;6.72;;;25.80;99.90;;;;;;5030542;28;20265;-79
2023/08/27 09:16:11;;;;;;;8.85;8.05;;;25.70;99.90;;;;;;5026441;28;20204;-80
2023/08/27 09:18:38;;;;;;;7.32;6.65;;;25.30;99.90;;;;;;5028305;28;20492;-80
2023/08/27 09:21:07;;;;;;;7.85;7.25;;;24.80;99.90;;;;;;5026770;28;20285;-80
2023/08/27 09:23:37;;;;;;;7.70;7.00;;;24.50;99.90;;;;;;5024647;28;20200;-79
2023/08/27 09:26:05;;;;;;;7.10;6.40;;;24.20;99.90;;;;;;5025968;28;20648;-79
2023/08/27 09:28:33;;;;;;;7.05;6.53;;;24.10;99.90;;;;;;5032134;28;20250;-79
2023/08/27 09:31:01;;;;;;;6.43;5.82;;;24.10;99.90;;;;;;5030462;28;20206;-78
2023/08/27 09:33:38;;;;;;;5.60;5.10;;;24.10;99.90;;;;;;5026153;28;20209;-79
2023/08/27 09:36:07;;;;;;;5.72;5.32;;;24.30;99.90;;;;;;5026882;28;20215;-79
2023/08/27 09:38:34;;;;;;;6.22;5.72;;;24.50;99.90;;;;;;5027001;28;20723;-79
2023/08/27 09:41:15;;;;;;;6.50;6.00;;;24.50;99.90;;;;;;5029467;28;20653;-79
2023/08/27 09:43:47;;;;;;;5.93;5.43;;;24.50;99.90;;;;;;5025053;28;20230;-79
2023/08/27 09:46:17;;;;;;;8.60;7.70;;;24.50;99.90;;;;;;5024549;28;20231;-78
2023/08/27 09:48:44;;;;;;;7.90;7.03;;;24.40;99.90;;;;;;5029771;28;20216;-77
2023/08/27 09:51:12;;;;;;;9.00;6.65;;;24.30;99.90;;;;;;5030630;28;20207;-77
2023/08/27 09:53:39;;;;;;;7.13;6.43;;;24.10;99.90;;;;;;5034945;28;20269;-77
2023/08/27 09:56:06;;;;;;;8.27;6.90;;;24.10;99.90;;;;;;5023310;28;20210;-78
2023/08/27 09:58:37;;;;;;;10.07;6.85;;;23.80;99.90;;;;;;5028636;28;20825;-78
2023/08/27 10:01:04;;;;;;;9.52;6.30;;;23.60;99.90;;;;;;5029345;28;20234;-76
2023/08/27 10:03:31;;;;;;;8.02;6.00;;;23.50;99.90;;;;;;5027035;28;20246;-77
2023/08/27 10:06:01;;;;;;;7.32;5.80;;;23.60;99.90;;;;;;5023032;28;20724;-77
2023/08/27 10:08:29;;;;;;;8.02;6.63;;;23.60;99.90;;;;;;5029071;28;20258;-79
2023/08/27 10:11:06;;;;;;;7.40;6.25;;;23.70;99.90;;;;;;5029173;28;20717;-77
2023/08/27 10:13:34;;;;;;;7.30;5.57;;;23.80;99.90;;;;;;5022293;28;20204;-78
2023/08/27 10:16:01;;;;;;;6.32;5.65;;;23.80;99.90;;;;;;5024956;28;20203;-77
2023/08/27 10:18:28;;;;;;;6.45;5.50;;;23.90;99.90;;;;;;5025581;28;20269;-78
2023/08/27 10:20:57;;;;;;;8.88;5.63;;;23.90;99.90;;;;;;5034714;28;20199;-77
2023/08/27 10:23:26;;;;;;;7.72;5.88;;;23.90;99.90;;;;;;5024407;28;20200;-79
2023/08/27 10:25:57;;;;;;;6.80;6.07;;;24.00;99.90;;;;;;5028461;28;20202;-78
2023/08/27 10:28:24;;;;;;;6.78;5.60;;;24.10;99.90;;;;;;5029176;28;20305;-79
2023/08/27 10:30:53;;;;;;;8.13;5.63;;;24.20;99.90;;;;;;5028744;28;20207;-77
2023/08/27 10:33:20;;;;;;;7.40;5.78;;;24.30;99.90;;;;;;5025346;28;20238;-77
2023/08/27 10:35:50;;;;;;;6.50;5.80;;;24.40;99.90;;;;;;5017394;28;20212;-77
2023/08/27 10:38:19;;;;;;;8.63;6.47;;;24.40;99.90;;;;;;5021151;28;20729;-78
2023/08/27 10:40:46;;;;;;;7.07;5.65;;;24.50;99.90;;;;;;5022335;28;20677;-76
2023/08/27 10:43:20;;;;;;;8.52;6.07;;;24.70;99.90;;;;;;5025532;28;20239;-78
2023/08/27 10:45:48;;;;;;;6.95;5.75;;;24.90;99.90;;;;;;5028209;28;20254;-78
2023/08/27 10:48:26;;;;;;;7.32;5.43;;;25.10;99.90;;;;;;5030450;28;20255;-78
2023/08/27 10:50:56;;;;;;;6.38;5.78;;;25.30;99.90;;;;;;5019646;28;20241;-78
2023/08/27 10:53:24;;;;;;;7.03;5.32;;;25.50;99.90;;;;;;5027134;28;20293;-79
2023/08/27 10:55:53;;;;;;;7.85;5.20;;;25.50;99.90;;;;;;5033096;28;20216;-78
2023/08/27 10:58:23;;;;;;;7.47;5.30;;;25.60;99.90;;;;;;5015080;28;20212;-78
2023/08/27 11:01:03;;;;;;;7.25;5.63;;;25.60;99.90;;;;;;5032588;28;20204;-77
2023/08/27 11:03:52;;;;;;;7.15;5.25;;;25.70;99.90;;;;;;5024011;28;20195;-78
2023/08/27 11:06:20;;;;;;;7.50;5.38;;;25.70;99.90;;;;;;5021971;28;20200;-78
2023/08/27 11:08:52;;;;;;;7.25;4.97;;;25.90;99.90;;;;;;5017314;28;20255;-79
2023/08/27 11:11:25;;;;;;;6.60;4.90;;;26.00;99.90;;;;;;5016767;28;20291;-78
2023/08/27 11:14:05;;;;;;;7.22;5.32;;;26.20;99.90;;;;;;5026141;28;20319;-79
2023/08/27 11:16:32;;;;;;;8.95;5.55;;;26.20;99.90;;;;;;5023645;28;20297;-78
2023/08/27 11:18:59;;;;;;;7.75;4.45;;;26.20;99.90;;;;;;5016887;28;20730;-79
2023/08/27 11:21:45;;;;;;;7.18;4.93;;;26.20;99.90;;;;;;5027678;28;20199;-79
2023/08/27 11:24:21;;;;;;;7.95;5.13;;;26.10;99.90;;;;;;5025846;28;20648;-80
2023/08/27 11:26:48;;;;;;;7.07;5.38;;;26.10;99.90;;;;;;5023754;28;20242;-80
2023/08/27 11:29:18;;;;;;;8.63;5.20;;;25.90;99.90;;;;;;5033059;28;20203;-79
2023/08/27 11:31:46;;;;;;;7.88;4.80;;;25.90;99.90;;;;;;5020109;28;20203;-78
2023/08/27 11:34:14;;;;;;;8.27;5.20;;;25.80;99.90;;;;;;5024943;28;20226;-79
2023/08/27 11:36:42;;;;;;;6.22;4.97;;;25.70;99.90;;;;;;5029732;28;20207;-79
2023/08/27 11:39:11;;;;;;;8.25;5.55;;;25.60;99.90;;;;;;5019454;28;20254;-79
2023/08/27 11:41:43;;;;;;;7.78;4.70;;;25.70;99.90;;;;;;5026336;28;20260;-79
2023/08/27 11:44:11;;;;;;;6.63;4.57;;;25.70;99.90;;;;;;5025648;28;20207;-80
2023/08/27 11:46:41;;;;;;;6.57;4.50;;;25.80;99.90;;;;;;5025302;28;20294;-79
2023/08/27 11:49:12;;;;;;;6.85;5.28;;;25.80;99.90;;;;;;5017413;28;20304;-79
2023/08/27 11:51:41;;;;;;;9.30;4.90;;;25.80;99.90;;;;;;5024973;28;20243;-78
2023/08/27 11:54:09;;;;;;;7.30;4.90;;;25.80;99.90;;;;;;5026328;28;20995;-78
2023/08/27 11:56:37;;;;;;;5.22;4.03;;;25.90;99.90;;;;;;5030788;28;20230;-78
2023/08/27 11:59:05;;;;;;;7.47;4.72;;;26.00;99.90;;;;;;5027412;28;20243;-79
2023/08/27 12:01:33;;;;;;;7.25;4.63;;;26.00;99.90;;;;;;5017384;28;20200;-78
2023/08/27 12:04:02;;;;;;;8.27;4.55;;;26.00;99.90;;;;;;5025991;28;20223;-78
2023/08/27 12:06:30;;;;;;;4.45;4.05;;;25.90;99.90;;;;;;5028021;28;20203;-79
2023/08/27 12:08:57;;;;;;;7.05;4.40;;;25.90;99.90;;;;;;5026514;28;20284;-78
2023/08/27 12:11:27;;;;;;;7.35;4.18;;;25.90;99.90;;;;;;5026813;28;20846;-79
2023/08/27 12:13:58;;;;;;;9.98;4.40;;;25.80;99.90;;;;;;5028259;28;20658;-78
2023/08/27 12:16:29;;;;;;;7.43;4.57;;;25.70;99.90;;;;;;5021810;28;20273;-78
2023/08/27 12:19:06;;;;;;;7.90;4.80;;;25.70;99.90;;;;;;5023307;28;20627;-79
2023/08/27 12:21:34;;;;;;;7.38;4.22;;;25.60;99.90;;;;;;5024404;28;20752;-78
2023/08/27 12:24:01;;;;;;;7.95;5.05;;;25.50;99.90;;;;;;5021104;28;20254;-78
2023/08/27 12:26:30;;;;;;;10.93;5.03;;;25.50;99.90;;;;;;5020331;28;20219;-78
2023/08/27 12:28:57;;;;;;;10.15;4.97;;;25.40;99.90;;;;;;5023390;28;20225;-78
2023/08/27 12:31:25;;;;;;;6.47;4.35;;;25.30;99.90;;;;;;5024753;28;20282;-78
2023/08/27 12:33:58;;;;;;;8.15;4.82;;;25.20;99.90;;;;;;5020267;28;20208;-78
2023/08/27 12:36:26;;;;;;;6.60;4.60;;;25.20;99.90;;;;;;5021561;28;20330;-78
2023/08/27 12:38:53;;;;;;;6.15;4.00;;;25.20;99.90;;;;;;5023272;28;20702;-77
2023/08/27 12:41:22;;;;;;;9.02;4.65;;;25.10;99.90;;;;;;5021611;28;20294;-78
2023/08/27 12:43:51;;;;;;;10.70;5.03;;;25.00;99.90;;;;;;5026447;28;20629;-77
2023/08/27 12:46:18;;;;;;;5.93;4.38;;;24.90;99.90;;;;;;5014297;28;20242;-77
2023/08/27 12:48:46;;;;;;;6.32;4.45;;;24.90;99.90;;;;;;5020756;28;20238;-78
2023/08/27 12:51:14;;;;;;;6.40;4.47;;;24.80;99.90;;;;;;5023681;28;20227;-78